createdAt,value
2018-10-02T00:02:02.471Z,100.00
2018-10-02T00:04:31.592Z,100.00
2018-10-02T00:07:00.749Z,100.00
2018-10-02T00:09:29.902Z,100.00
2018-10-02T00:12:04.264Z,100.00
2018-10-02T00:14:33.411Z,100.00
2018-10-02T00:17:02.536Z,100.00
2018-10-02T00:19:31.674Z,100.00
2018-10-02T00:22:00.812Z,100.00
2018-10-02T00:24:29.983Z,100.00
2018-10-02T00:26:59.151Z,100.00
2018-10-02T00:29:28.300Z,100.00
2018-10-02T00:31:57.525Z,100.00
2018-10-02T00:34:26.639Z,100.00
2018-10-02T00:36:56.172Z,100.00
2018-10-02T00:39:25.324Z,100.00
2018-10-02T00:41:54.431Z,100.00
2018-10-02T00:44:23.581Z,100.00
2018-10-02T00:46:52.745Z,100.00
2018-10-02T00:49:21.880Z,100.00
2018-10-02T00:51:51.044Z,100.00
2018-10-02T00:54:20.192Z,100.00
2018-10-02T00:56:49.369Z,100.00
2018-10-02T00:59:18.599Z,100.00
2018-10-02T01:01:47.745Z,100.00
2018-10-02T01:04:16.910Z,100.00
2018-10-02T01:06:46.028Z,100.00
2018-10-02T01:09:15.233Z,100.00
2018-10-02T01:11:44.524Z,100.00
2018-10-02T01:14:13.881Z,100.00
2018-10-02T01:16:43.042Z,100.00
2018-10-02T01:19:12.201Z,100.00
2018-10-02T01:21:41.370Z,100.00
2018-10-02T01:24:10.554Z,100.00
2018-10-02T01:26:39.863Z,100.00
2018-10-02T01:29:09.230Z,100.00
2018-10-02T01:31:38.368Z,100.00
2018-10-02T01:34:07.553Z,100.00
2018-10-02T01:36:36.787Z,100.00
2018-10-02T01:39:07.717Z,100.00
2018-10-02T01:41:36.866Z,100.00
2018-10-02T01:44:06.262Z,100.00
2018-10-02T01:46:36.132Z,100.00
2018-10-02T01:49:05.409Z,100.00
2018-10-02T01:51:34.682Z,100.00
2018-10-02T01:54:03.808Z,100.00
2018-10-02T01:56:32.940Z,100.00
2018-10-02T01:59:02.080Z,100.00
2018-10-02T02:01:31.233Z,100.00
2018-10-02T02:04:00.362Z,100.00
2018-10-02T02:06:29.510Z,100.00
2018-10-02T02:08:58.624Z,100.00
2018-10-02T02:11:27.769Z,100.00
2018-10-02T02:13:56.918Z,100.00
2018-10-02T02:16:26.111Z,100.00
2018-10-02T02:18:55.241Z,100.00
2018-10-02T02:21:24.484Z,100.00
2018-10-02T02:23:53.640Z,100.00
2018-10-02T02:26:22.777Z,100.00
2018-10-02T02:28:52.106Z,100.00
2018-10-02T02:31:21.256Z,100.00
2018-10-02T02:33:50.416Z,100.00
2018-10-02T02:36:19.579Z,100.00
2018-10-02T02:38:48.713Z,100.00
2018-10-02T02:41:17.862Z,100.00
2018-10-02T02:43:47.019Z,100.00
2018-10-02T02:46:16.162Z,100.00
2018-10-02T02:48:50.545Z,100.00
2018-10-02T02:51:19.963Z,100.00
2018-10-02T02:53:49.523Z,100.00
2018-10-02T02:56:18.708Z,100.00
2018-10-02T02:58:47.855Z,100.00
2018-10-02T03:01:16.997Z,100.00
2018-10-02T03:03:46.172Z,100.00
2018-10-02T03:06:15.338Z,100.00
2018-10-02T03:08:44.649Z,100.00
2018-10-02T03:11:13.801Z,100.00
2018-10-02T03:13:42.977Z,100.00
2018-10-02T03:16:12.131Z,100.00
2018-10-02T03:18:41.272Z,100.00
2018-10-02T03:21:10.396Z,100.00
2018-10-02T03:23:39.507Z,100.00
2018-10-02T03:26:08.759Z,100.00
2018-10-02T03:28:38.068Z,100.00
2018-10-02T03:31:07.510Z,100.00
2018-10-02T03:33:36.714Z,100.00
2018-10-02T03:36:05.891Z,100.00
2018-10-02T03:38:35.101Z,100.00
2018-10-02T03:41:04.259Z,100.00
2018-10-02T03:43:33.442Z,100.00
2018-10-02T03:46:02.552Z,100.00
2018-10-02T03:48:31.712Z,100.00
2018-10-02T03:51:00.909Z,100.00
2018-10-02T03:53:30.029Z,100.00
2018-10-02T03:55:59.191Z,100.00
2018-10-02T03:58:28.330Z,100.00
2018-10-02T04:00:57.478Z,100.00
2018-10-02T04:03:26.634Z,100.00
2018-10-02T04:05:55.794Z,100.00
2018-10-02T04:08:24.913Z,100.00
2018-10-02T04:10:54.071Z,100.00
2018-10-02T04:13:24.350Z,100.00
2018-10-02T04:15:53.471Z,100.00
2018-10-02T04:18:22.625Z,100.00
2018-10-02T04:20:51.839Z,100.00
2018-10-02T04:23:20.978Z,100.00
2018-10-02T04:25:50.149Z,100.00
2018-10-02T04:28:19.317Z,100.00
2018-10-02T04:30:48.389Z,100.00
2018-10-02T04:33:17.600Z,100.00
2018-10-02T04:35:46.749Z,100.00
2018-10-02T04:38:15.872Z,100.00
2018-10-02T04:40:45.001Z,100.00
2018-10-02T04:43:14.183Z,100.00
2018-10-02T04:45:43.357Z,100.00
2018-10-02T04:48:12.473Z,100.00
2018-10-02T04:50:41.650Z,100.00
2018-10-02T04:53:10.764Z,100.00
2018-10-02T04:55:39.977Z,100.00
2018-10-02T04:58:09.311Z,100.00
2018-10-02T05:00:38.471Z,100.00
2018-10-02T05:03:07.819Z,100.00
2018-10-02T05:05:36.968Z,100.00
2018-10-02T05:08:06.234Z,100.00
2018-10-02T05:10:35.393Z,100.00
2018-10-02T05:13:04.539Z,100.00
2018-10-02T05:15:33.748Z,100.00
2018-10-02T05:18:02.873Z,100.00
2018-10-02T05:20:32.535Z,100.00
2018-10-02T05:23:01.669Z,100.00
2018-10-02T05:25:30.823Z,100.00
2018-10-02T05:27:59.932Z,100.00
2018-10-02T05:30:29.176Z,100.00
2018-10-02T05:32:58.499Z,100.00
2018-10-02T05:35:27.639Z,100.00
2018-10-02T05:37:56.763Z,100.00
2018-10-02T05:40:25.914Z,100.00
2018-10-02T05:42:55.136Z,100.00
2018-10-02T05:45:24.267Z,100.00
2018-10-02T05:47:53.409Z,100.00
2018-10-02T05:50:22.599Z,100.00
2018-10-02T05:52:51.909Z,100.00
2018-10-02T05:55:21.056Z,100.00
2018-10-02T05:57:50.256Z,100.00
2018-10-02T06:00:19.452Z,100.00
2018-10-02T06:02:48.653Z,100.00
2018-10-02T06:05:17.787Z,100.00
2018-10-02T06:07:46.930Z,100.00
2018-10-02T06:10:16.087Z,100.00
2018-10-02T06:12:45.228Z,100.00
2018-10-02T06:15:14.338Z,100.00
2018-10-02T06:17:43.580Z,100.00
2018-10-02T06:20:12.724Z,100.00
2018-10-02T06:22:41.868Z,100.00
2018-10-02T06:25:11.025Z,100.00
2018-10-02T06:27:40.141Z,100.00
2018-10-02T06:30:09.354Z,100.00
2018-10-02T06:32:38.499Z,100.00
2018-10-02T06:35:07.892Z,100.00
2018-10-02T06:37:37.016Z,100.00
2018-10-02T06:40:06.349Z,100.00
2018-10-02T06:42:35.533Z,100.00
2018-10-02T06:45:04.740Z,100.00
2018-10-02T06:47:33.953Z,100.00
2018-10-02T06:50:03.126Z,100.00
2018-10-02T06:52:32.480Z,100.00
2018-10-02T06:55:01.451Z,100.00
2018-10-02T06:57:30.660Z,100.00
2018-10-02T06:59:59.833Z,100.00
2018-10-02T07:02:29.042Z,100.00
2018-10-02T07:04:58.104Z,100.00
2018-10-02T07:07:27.238Z,100.00
2018-10-02T07:09:56.393Z,100.00
2018-10-02T07:12:25.567Z,100.00
2018-10-02T07:14:54.687Z,100.00
2018-10-02T07:17:24.157Z,100.00
2018-10-02T07:19:53.305Z,100.00
2018-10-02T07:22:22.445Z,100.00
2018-10-02T07:24:51.578Z,99.49
2018-10-02T07:27:20.851Z,97.60
2018-10-02T07:29:49.863Z,98.03
2018-10-02T07:32:18.993Z,97.42
2018-10-02T07:34:48.152Z,97.06
2018-10-02T07:37:17.262Z,96.38
2018-10-02T07:39:46.464Z,96.40
2018-10-02T07:42:15.637Z,94.21
2018-10-02T07:44:44.709Z,95.44
2018-10-02T07:47:13.857Z,94.74
2018-10-02T07:49:47.010Z,94.41
2018-10-02T07:52:16.138Z,94.38
2018-10-02T07:54:45.256Z,92.88
2018-10-02T07:57:14.436Z,93.83
2018-10-02T07:59:44.598Z,93.25
2018-10-02T08:02:14.070Z,93.68
2018-10-02T08:04:43.263Z,92.99
2018-10-02T08:07:12.409Z,92.29
2018-10-02T08:09:41.534Z,90.46
2018-10-02T08:12:10.726Z,89.92
2018-10-02T08:14:39.893Z,89.85
2018-10-02T08:17:09.141Z,88.95
2018-10-02T08:19:38.431Z,86.00
2018-10-02T08:22:07.643Z,85.87
2018-10-02T08:24:36.958Z,86.55
2018-10-02T08:27:06.335Z,86.69
2018-10-02T08:29:35.560Z,85.86
2018-10-02T08:32:04.785Z,86.52
2018-10-02T08:34:33.956Z,83.97
2018-10-02T08:37:03.106Z,85.35
2018-10-02T08:39:32.347Z,84.62
2018-10-02T08:42:01.613Z,82.75
2018-10-02T08:44:30.800Z,82.56
2018-10-02T08:46:59.860Z,79.12
2018-10-02T08:49:29.020Z,78.93
2018-10-02T08:51:58.226Z,80.88
2018-10-02T08:54:27.453Z,83.14
2018-10-02T08:56:56.796Z,84.34
2018-10-02T08:59:25.993Z,86.05
2018-10-02T09:01:55.137Z,86.04
2018-10-02T09:04:24.282Z,86.21
2018-10-02T09:06:53.460Z,86.78
2018-10-02T09:09:22.583Z,88.94
2018-10-02T09:11:51.811Z,88.95
2018-10-02T09:14:20.973Z,87.44
2018-10-02T09:16:50.253Z,82.07
2018-10-02T09:19:19.304Z,79.96
2018-10-02T09:21:48.492Z,78.12
2018-10-02T09:24:17.633Z,77.53
2018-10-02T09:26:46.796Z,74.03
2018-10-02T09:29:15.957Z,75.38
2018-10-02T09:31:50.294Z,73.60
2018-10-02T09:34:24.710Z,72.17
2018-10-02T09:36:59.070Z,73.93
2018-10-02T09:39:33.424Z,72.20
2018-10-02T09:42:08.175Z,72.06
2018-10-02T09:44:37.354Z,70.66
2018-10-02T09:47:06.851Z,68.79
2018-10-02T09:49:37.087Z,69.48
2018-10-02T09:52:06.273Z,71.75
2018-10-02T09:54:35.453Z,71.78
2018-10-02T09:57:04.650Z,72.83
2018-10-02T09:59:33.790Z,72.49
2018-10-02T10:02:08.310Z,67.65
2018-10-02T10:04:37.490Z,68.31
2018-10-02T10:07:06.816Z,68.46
2018-10-02T10:09:35.972Z,67.97
2018-10-02T10:12:05.133Z,70.47
2018-10-02T10:14:34.285Z,70.90
2018-10-02T10:17:03.569Z,71.18
2018-10-02T10:19:32.665Z,72.23
2018-10-02T10:22:01.846Z,70.76
2018-10-02T10:24:31.065Z,71.77
2018-10-02T10:27:00.225Z,71.34
2018-10-02T10:29:29.461Z,71.26
2018-10-02T10:31:58.622Z,71.19
2018-10-02T10:34:27.816Z,71.63
2018-10-02T10:36:56.954Z,71.79
2018-10-02T10:39:26.105Z,71.10
2018-10-02T10:41:55.284Z,70.32
2018-10-02T10:44:24.478Z,71.39
2018-10-02T10:46:53.676Z,73.08
2018-10-02T10:49:22.824Z,72.22
2018-10-02T10:51:51.986Z,73.30
2018-10-02T10:54:21.121Z,73.00
2018-10-02T10:56:50.278Z,70.37
2018-10-02T10:59:19.422Z,67.62
2018-10-02T11:01:48.569Z,68.67
2018-10-02T11:04:17.774Z,67.22
2018-10-02T11:06:46.965Z,59.38
2018-10-02T11:09:16.107Z,59.36
2018-10-02T11:11:45.305Z,58.75
2018-10-02T11:14:14.459Z,58.53
2018-10-02T11:16:43.612Z,59.02
2018-10-02T11:19:12.930Z,59.73
2018-10-02T11:21:42.129Z,59.97
2018-10-02T11:24:11.340Z,60.42
2018-10-02T11:26:40.482Z,61.45
2018-10-02T11:29:09.622Z,60.89
2018-10-02T11:31:38.829Z,61.62
2018-10-02T11:34:07.969Z,62.77
2018-10-02T11:36:37.185Z,62.03
2018-10-02T11:39:07.483Z,61.43
2018-10-02T11:41:36.644Z,64.32
2018-10-02T11:44:05.920Z,65.85
2018-10-02T11:46:35.021Z,64.96
2018-10-02T11:49:04.208Z,63.82
2018-10-02T11:51:33.338Z,62.13
2018-10-02T11:54:02.502Z,61.69
2018-10-02T11:56:31.628Z,63.14
2018-10-02T11:59:01.558Z,63.28
2018-10-02T12:01:30.666Z,62.79
2018-10-02T12:03:59.850Z,62.94
2018-10-02T12:06:29.115Z,63.86
2018-10-02T12:08:58.245Z,64.79
2018-10-02T12:11:27.426Z,64.73
2018-10-02T12:13:56.585Z,64.46
2018-10-02T12:16:25.676Z,65.27
2018-10-02T12:18:54.820Z,65.58
2018-10-02T12:21:23.967Z,66.83
2018-10-02T12:23:53.568Z,68.09
2018-10-02T12:26:22.778Z,64.00
2018-10-02T12:28:51.929Z,64.20
2018-10-02T12:31:21.171Z,64.07
2018-10-02T12:33:50.398Z,64.38
2018-10-02T12:36:19.669Z,64.14
2018-10-02T12:38:48.984Z,63.55
2018-10-02T12:41:18.166Z,64.51
2018-10-02T12:43:47.439Z,63.14
2018-10-02T12:46:16.620Z,64.84
2018-10-02T12:48:46.197Z,63.24
2018-10-02T12:51:15.399Z,63.00
2018-10-02T12:53:44.812Z,61.70
2018-10-02T12:56:13.950Z,62.74
2018-10-02T12:58:43.080Z,60.99
2018-10-02T13:01:12.193Z,58.64
2018-10-02T13:03:41.357Z,60.70
2018-10-02T13:06:10.545Z,60.38
2018-10-02T13:08:39.700Z,60.37
2018-10-02T13:11:09.102Z,58.57
2018-10-02T13:13:38.346Z,59.78
2018-10-02T13:16:07.521Z,59.25
2018-10-02T13:18:37.298Z,60.20
2018-10-02T13:21:07.432Z,61.15
2018-10-02T13:23:36.564Z,61.87
2018-10-02T13:26:05.845Z,61.57
2018-10-02T13:28:34.983Z,61.75
2018-10-02T13:31:04.129Z,61.74
2018-10-02T13:33:33.498Z,61.53
2018-10-02T13:36:03.464Z,60.00
2018-10-02T13:38:32.623Z,59.61
2018-10-02T13:41:02.317Z,60.52
2018-10-02T13:43:31.656Z,60.49
2018-10-02T13:46:00.804Z,61.34
2018-10-02T13:48:29.952Z,60.04
2018-10-02T13:50:59.117Z,61.25
2018-10-02T13:53:28.233Z,62.06
2018-10-02T13:55:57.479Z,62.81
2018-10-02T13:58:26.582Z,62.93
2018-10-02T14:00:55.716Z,61.33
2018-10-02T14:03:24.874Z,61.10
2018-10-02T14:05:54.081Z,60.66
2018-10-02T14:08:23.258Z,61.40
2018-10-02T14:10:52.516Z,60.90
2018-10-02T14:13:21.644Z,59.91
2018-10-02T14:15:50.776Z,60.46
2018-10-02T14:18:19.929Z,60.35
2018-10-02T14:20:49.103Z,60.12
2018-10-02T14:23:18.238Z,59.84
2018-10-02T14:25:47.396Z,59.77
2018-10-02T14:28:16.558Z,59.80
2018-10-02T14:30:45.707Z,58.96
2018-10-02T14:33:14.893Z,60.16
2018-10-02T14:35:44.030Z,60.07
2018-10-02T14:38:13.162Z,60.97
2018-10-02T14:40:42.595Z,59.24
2018-10-02T14:43:11.812Z,58.78
2018-10-02T14:45:41.877Z,59.85
2018-10-02T14:48:11.156Z,60.90
2018-10-02T14:50:40.330Z,59.74
2018-10-02T14:53:09.627Z,59.82
2018-10-02T14:55:38.776Z,58.71
2018-10-02T14:58:07.956Z,60.38
2018-10-02T15:00:37.128Z,60.49
2018-10-02T15:03:06.450Z,60.81
2018-10-02T15:05:35.735Z,60.78
2018-10-02T15:08:04.886Z,59.26
2018-10-02T15:10:35.471Z,60.28
2018-10-02T15:13:04.625Z,60.03
2018-10-02T15:15:33.926Z,60.82
2018-10-02T15:18:03.086Z,61.62
2018-10-02T15:20:32.208Z,60.73
2018-10-02T15:23:01.327Z,61.18
2018-10-02T15:25:30.794Z,61.53
2018-10-02T15:27:59.962Z,60.32
2018-10-02T15:30:29.086Z,61.38
2018-10-02T15:32:58.250Z,61.08
2018-10-02T15:35:27.381Z,59.04
2018-10-02T15:37:56.749Z,60.17
2018-10-02T15:40:25.839Z,60.04
2018-10-02T15:42:55.000Z,60.92
2018-10-02T15:45:24.135Z,61.94
2018-10-02T15:47:53.281Z,61.76
2018-10-02T15:50:22.472Z,61.98
2018-10-02T15:52:51.657Z,62.25
2018-10-02T15:55:20.825Z,62.47
2018-10-02T15:57:49.948Z,62.72
2018-10-02T16:00:19.077Z,62.83
2018-10-02T16:02:48.231Z,63.47
2018-10-02T16:05:17.392Z,63.41
2018-10-02T16:07:46.520Z,62.66
2018-10-02T16:10:15.693Z,64.12
2018-10-02T16:12:44.817Z,63.13
2018-10-02T16:15:13.961Z,63.75
2018-10-02T16:17:43.138Z,65.18
2018-10-02T16:20:12.310Z,64.04
2018-10-02T16:22:41.473Z,64.42
2018-10-02T16:25:10.657Z,65.41
2018-10-02T16:27:39.874Z,65.65
2018-10-02T16:30:08.968Z,65.66
2018-10-02T16:32:38.110Z,65.73
2018-10-02T16:35:07.410Z,66.19
2018-10-02T16:37:36.663Z,68.00
2018-10-02T16:40:05.889Z,68.57
2018-10-02T16:42:35.075Z,67.99
2018-10-02T16:45:04.208Z,67.98
2018-10-02T16:47:33.406Z,68.93
2018-10-02T16:50:02.558Z,68.59
2018-10-02T16:52:31.707Z,68.18
2018-10-02T16:55:01.205Z,69.00
2018-10-02T16:57:30.389Z,68.87
2018-10-02T16:59:59.525Z,68.97
2018-10-02T17:02:28.699Z,69.71
2018-10-02T17:04:58.820Z,69.93
2018-10-02T17:07:27.993Z,70.27
2018-10-02T17:09:57.589Z,70.55
2018-10-02T17:12:26.765Z,71.59
2018-10-02T17:14:55.933Z,71.92
2018-10-02T17:17:25.106Z,71.95
2018-10-02T17:19:54.251Z,72.81
2018-10-02T17:22:23.395Z,73.21
2018-10-02T17:24:52.609Z,73.71
2018-10-02T17:27:23.288Z,73.57
2018-10-02T17:29:52.416Z,73.67
2018-10-02T17:32:21.585Z,74.46
2018-10-02T17:34:50.721Z,74.74
2018-10-02T17:37:19.909Z,75.36
2018-10-02T17:39:49.334Z,75.88
2018-10-02T17:42:18.556Z,75.76
2018-10-02T17:44:47.689Z,75.89
2018-10-02T17:47:17.240Z,76.05
2018-10-02T17:49:46.513Z,76.67
2018-10-02T17:52:15.695Z,77.02
2018-10-02T17:54:45.599Z,77.84
2018-10-02T17:57:14.708Z,76.44
2018-10-02T17:59:43.877Z,75.86
2018-10-02T18:02:13.036Z,75.58
2018-10-02T18:04:42.162Z,75.08
2018-10-02T18:07:11.520Z,75.79
2018-10-02T18:09:41.350Z,74.70
2018-10-02T18:12:10.783Z,74.81
2018-10-02T18:14:39.905Z,75.25
2018-10-02T18:17:09.812Z,75.84
2018-10-02T18:19:39.027Z,76.10
2018-10-02T18:22:08.192Z,77.01
2018-10-02T18:24:37.669Z,78.18
2018-10-02T18:27:07.018Z,78.05
2018-10-02T18:29:36.141Z,78.20
2018-10-02T18:32:05.327Z,78.65
2018-10-02T18:34:34.512Z,78.13
2018-10-02T18:37:03.631Z,78.40
2018-10-02T18:39:32.857Z,77.36
2018-10-02T18:42:02.011Z,77.99
2018-10-02T18:44:31.134Z,77.21
2018-10-02T18:47:00.661Z,77.62
2018-10-02T18:49:29.882Z,76.73
2018-10-02T18:51:59.015Z,77.03
2018-10-02T18:54:28.360Z,76.70
2018-10-02T18:56:59.461Z,76.74
2018-10-02T18:59:28.661Z,76.83
2018-10-02T19:01:57.862Z,76.96
2018-10-02T19:04:26.986Z,77.30
2018-10-02T19:06:56.229Z,77.46
2018-10-02T19:09:25.388Z,77.25
2018-10-02T19:12:00.710Z,77.29
2018-10-02T19:14:29.896Z,77.65
2018-10-02T19:16:59.031Z,76.79
2018-10-02T19:19:33.731Z,76.59
2018-10-02T19:22:02.858Z,76.93
2018-10-02T19:24:32.039Z,76.48
2018-10-02T19:27:01.157Z,76.45
2018-10-02T19:29:30.287Z,75.67
2018-10-02T19:32:29.912Z,75.92
2018-10-02T19:34:59.041Z,75.91
2018-10-02T19:38:37.158Z,74.10
2018-10-02T19:41:06.496Z,73.94
2018-10-02T19:43:35.616Z,72.91
2018-10-02T19:46:10.054Z,72.05
2018-10-02T19:48:39.190Z,71.60
2018-10-02T19:51:13.677Z,71.82
2018-10-02T19:53:42.802Z,70.89
2018-10-02T19:56:11.926Z,70.57
2018-10-02T19:58:41.109Z,70.70
2018-10-02T20:01:10.283Z,70.36
2018-10-02T20:03:39.473Z,71.16
2018-10-02T20:06:08.629Z,71.43
2018-10-02T20:08:39.430Z,71.78
2018-10-02T20:11:08.806Z,71.92
2018-10-02T20:13:38.161Z,71.65
2018-10-02T20:16:07.534Z,71.82
2018-10-02T20:18:36.663Z,72.00
2018-10-02T20:21:05.944Z,71.20
2018-10-02T20:23:35.386Z,70.87
2018-10-02T20:26:04.564Z,71.48
2018-10-02T20:28:33.731Z,70.84
2018-10-02T20:31:02.955Z,70.92
2018-10-02T20:33:32.114Z,71.04
2018-10-02T20:36:01.352Z,70.85
2018-10-02T20:38:30.472Z,69.61
2018-10-02T20:40:59.661Z,69.87
2018-10-02T20:43:28.816Z,69.45
2018-10-02T20:45:57.951Z,70.11
2018-10-02T20:48:27.153Z,69.26
2018-10-02T20:50:56.326Z,69.14
2018-10-02T20:53:25.479Z,69.65
2018-10-02T20:55:54.705Z,69.84
2018-10-02T20:58:23.957Z,69.62
2018-10-02T21:00:53.117Z,69.39
2018-10-02T21:03:22.272Z,69.73
2018-10-02T21:05:51.509Z,70.18
2018-10-02T21:08:20.699Z,69.20
2018-10-02T21:10:49.813Z,69.67
2018-10-02T21:13:18.941Z,69.62
2018-10-02T21:15:48.082Z,68.68
2018-10-02T21:18:17.260Z,69.72
2018-10-02T21:20:46.416Z,70.13
2018-10-02T21:23:15.539Z,69.50
2018-10-02T21:25:44.681Z,70.40
2018-10-02T21:28:13.890Z,71.05
2018-10-02T21:30:43.114Z,71.47
2018-10-02T21:33:12.256Z,71.33
2018-10-02T21:35:41.381Z,71.50
2018-10-02T21:38:10.506Z,71.28
2018-10-02T21:40:39.628Z,71.79
2018-10-02T21:43:08.966Z,71.51
2018-10-02T21:45:38.091Z,71.09
2018-10-02T21:48:07.262Z,71.57
2018-10-02T21:50:36.425Z,71.10
2018-10-02T21:53:05.717Z,71.25
2018-10-02T21:55:34.863Z,70.52
2018-10-02T21:58:03.987Z,70.40
2018-10-02T22:00:34.115Z,69.33
2018-10-02T22:03:03.327Z,69.36
2018-10-02T22:05:32.466Z,70.46
2018-10-02T22:08:01.600Z,70.22
2018-10-02T22:10:30.734Z,69.35
2018-10-02T22:12:59.861Z,70.08
2018-10-02T22:15:29.147Z,69.27
2018-10-02T22:17:58.226Z,68.77
2018-10-02T22:20:27.418Z,68.56
2018-10-02T22:22:56.550Z,68.10
2018-10-02T22:25:25.687Z,67.95
2018-10-02T22:27:54.831Z,67.51
2018-10-02T22:30:23.974Z,68.06
2018-10-02T22:32:53.080Z,68.48
2018-10-02T22:35:22.244Z,68.34
2018-10-02T22:37:51.407Z,68.66
2018-10-02T22:40:20.523Z,68.66
2018-10-02T22:42:49.693Z,68.25
2018-10-02T22:45:18.823Z,67.92
2018-10-02T22:47:47.942Z,69.17
2018-10-02T22:50:17.093Z,68.72
2018-10-02T22:52:46.275Z,69.38
2018-10-02T22:55:15.433Z,69.81
2018-10-02T22:57:44.620Z,70.05
2018-10-02T23:00:13.777Z,69.89
2018-10-02T23:02:42.962Z,70.27
2018-10-02T23:05:12.107Z,70.16
2018-10-02T23:07:41.257Z,70.65
2018-10-02T23:10:10.426Z,71.28
2018-10-02T23:12:39.626Z,72.79
2018-10-02T23:15:10.437Z,74.50
2018-10-02T23:17:39.661Z,74.88
2018-10-02T23:20:08.812Z,75.99
2018-10-02T23:22:37.932Z,77.23
2018-10-02T23:25:07.377Z,77.83
2018-10-02T23:27:36.540Z,78.65
2018-10-02T23:30:05.814Z,79.14
2018-10-02T23:32:35.044Z,80.46
2018-10-02T23:35:04.207Z,80.81
2018-10-02T23:37:33.345Z,81.36
2018-10-02T23:40:02.534Z,81.58
2018-10-02T23:42:31.706Z,82.18
2018-10-02T23:45:00.812Z,82.57
2018-10-02T23:47:29.945Z,82.69
2018-10-02T23:49:59.097Z,82.86
2018-10-02T23:52:28.211Z,83.23
2018-10-02T23:54:57.366Z,83.36
2018-10-02T23:57:26.518Z,83.37
2018-10-02T23:59:55.655Z,83.64
